Time;durP1;ratioP1;P1;durP2;ratioP2;P2;SDS_P1;SDS_P2;PMS_P1;PMS_P2;Temp;Humidity;BMP_temperature;BMP_pressure;BME280_temperature;BME280_humidity;BME280_pressure;Samples;Min_cycle;Max_cycle;Signal;HPM_P1;HPM_P2
2023/12/30 00:00:53;;;;;;;3.60;1.40;;;;;;;;;;5020153;28;20195;-80
2023/12/30 00:03:19;;;;;;;3.07;1.40;;;;;;;;;;5019588;28;20211;-81
2023/12/30 00:05:45;;;;;;;2.30;1.20;;;;;;;;;;5007046;28;20691;-81
2023/12/30 00:08:11;;;;;;;2.40;1.40;;;;;;;;;;5031165;28;20175;-81
2023/12/30 00:10:37;;;;;;;2.67;1.33;;;;;;;;;;5027065;28;20180;-81
2023/12/30 00:13:03;;;;;;;4.77;1.60;;;;;;;;;;5027144;28;20202;-81
2023/12/30 00:15:30;;;;;;;2.67;1.27;;;;;;;;;;5026347;28;20226;-81
2023/12/30 00:17:56;;;;;;;3.30;1.40;;;;;;;;;;5028536;28;20179;-81
2023/12/30 00:20:22;;;;;;;3.13;1.20;;;;;;;;;;5024478;28;20193;-81
2023/12/30 00:22:48;;;;;;;2.90;1.50;;;;;;;;;;5020645;28;20289;-81
2023/12/30 00:25:16;;;;;;;4.00;1.50;;;;;;;;;;5024864;28;20215;-81
2023/12/30 00:27:42;;;;;;;3.80;1.53;;;;;;;;;;5024859;28;20191;-81
2023/12/30 00:30:08;;;;;;;4.53;1.50;;;;;;;;;;5026816;28;20252;-81
2023/12/30 00:32:35;;;;;;;3.17;1.40;;;;;;;;;;5007915;28;20213;-81
2023/12/30 00:35:02;;;;;;;2.37;1.40;;;;;;;;;;5021979;28;20191;-81
2023/12/30 00:37:28;;;;;;;3.53;1.47;;;;;;;;;;5024519;28;20672;-81
2023/12/30 00:39:54;;;;;;;3.53;1.80;;;;;;;;;;5021492;28;20191;-81
2023/12/30 00:42:20;;;;;;;3.03;1.90;;;;;;;;;;5017881;28;20210;-82
2023/12/30 00:44:46;;;;;;;5.90;2.10;;;;;;;;;;5028419;28;20217;-81
2023/12/30 00:47:12;;;;;;;3.87;1.73;;;;;;;;;;5008767;28;20199;-81
2023/12/30 00:49:38;;;;;;;4.07;2.33;;;;;;;;;;5008302;28;20206;-81
2023/12/30 00:52:05;;;;;;;6.73;3.33;;;;;;;;;;5028573;28;20223;-81
2023/12/30 00:54:31;;;;;;;6.73;3.03;;;;;;;;;;5022643;28;20199;-81
2023/12/30 00:56:57;;;;;;;8.57;3.40;;;;;;;;;;5001100;28;20560;-81
2023/12/30 00:59:23;;;;;;;5.27;2.57;;;;;;;;;;5005743;28;20199;-81
2023/12/30 01:01:49;;;;;;;6.03;3.03;;;;;;;;;;5013062;28;20327;-81
2023/12/30 01:04:16;;;;;;;4.20;2.37;;;;;;;;;;5003980;28;20298;-81
2023/12/30 01:06:42;;;;;;;3.07;1.93;;;;;;;;;;5027110;28;20183;-81
2023/12/30 01:09:08;;;;;;;3.50;1.90;;;;;;;;;;5021189;28;20650;-81
2023/12/30 01:11:34;;;;;;;3.27;1.90;;;;;;;;;;5023882;28;20671;-81
2023/12/30 01:14:00;;;;;;;2.63;2.00;;;;;;;;;;5024210;28;20269;-81
2023/12/30 01:16:26;;;;;;;2.83;1.90;;;;;;;;;;5023043;28;20221;-81
2023/12/30 01:18:53;;;;;;;4.07;1.80;;;;;;;;;;5017916;28;20268;-81
2023/12/30 01:21:19;;;;;;;5.23;1.90;;;;;;;;;;5025912;28;20226;-81
2023/12/30 01:23:45;;;;;;;6.57;2.00;;;;;;;;;;5023011;28;20214;-81
2023/12/30 01:26:11;;;;;;;3.83;2.00;;;;;;;;;;5023942;28;20180;-82
2023/12/30 01:28:38;;;;;;;4.60;2.07;;;;;;;;;;5022189;28;20265;-81
2023/12/30 01:31:04;;;;;;;2.87;1.80;;;;;;;;;;5023430;28;20198;-81
2023/12/30 01:33:30;;;;;;;4.20;1.90;;;;;;;;;;5018845;28;20187;-81
2023/12/30 01:35:56;;;;;;;4.07;1.80;;;;;;;;;;5026911;28;20301;-81
2023/12/30 01:38:22;;;;;;;3.17;1.70;;;;;;;;;;5030722;28;20276;-81
2023/12/30 01:40:48;;;;;;;2.33;1.30;;;;;;;;;;5027999;28;20638;-81
2023/12/30 01:43:27;;;;;;;1.53;1.40;;;;;;;;;;5029320;28;20222;-81
2023/12/30 01:45:56;;;;;;;3.37;1.43;;;;;;;;;;5029600;28;20189;-81
2023/12/30 01:48:23;;;;;;;2.20;1.30;;;;;;;;;;5005694;28;20190;-81
2023/12/30 01:50:49;;;;;;;3.47;1.40;;;;;;;;;;5027279;28;20597;-81
2023/12/30 01:53:17;;;;;;;2.73;1.13;;;;;;;;;;5025582;28;20278;-80
2023/12/30 01:55:44;;;;;;;4.13;1.20;;;;;;;;;;5026986;28;20218;-81
2023/12/30 01:58:10;;;;;;;2.50;1.17;;;;;;;;;;5014446;28;20196;-81
2023/12/30 02:00:37;;;;;;;2.70;1.30;;;;;;;;;;5013939;28;20202;-81
2023/12/30 02:03:04;;;;;;;1.97;1.10;;;;;;;;;;5027036;28;20202;-81
2023/12/30 02:05:30;;;;;;;4.30;1.27;;;;;;;;;;5035105;28;20206;-81
2023/12/30 02:07:57;;;;;;;3.00;1.20;;;;;;;;;;5028083;28;20613;-81
2023/12/30 02:10:23;;;;;;;2.80;1.00;;;;;;;;;;5035797;28;20182;-81
2023/12/30 02:12:49;;;;;;;3.03;1.40;;;;;;;;;;5034097;28;20209;-81
2023/12/30 02:15:17;;;;;;;3.60;1.50;;;;;;;;;;5001989;28;20200;-81
2023/12/30 02:17:47;;;;;;;2.70;1.80;;;;;;;;;;5013578;28;20273;-81
2023/12/30 02:20:13;;;;;;;3.20;1.57;;;;;;;;;;5029341;28;20286;-81
2023/12/30 02:22:41;;;;;;;3.53;1.70;;;;;;;;;;5016796;28;20232;-81
2023/12/30 02:25:07;;;;;;;3.97;1.87;;;;;;;;;;5006085;28;20206;-81
2023/12/30 02:27:33;;;;;;;3.27;2.03;;;;;;;;;;5027265;28;20190;-81
2023/12/30 02:30:00;;;;;;;4.43;1.90;;;;;;;;;;5027753;28;20174;-81
2023/12/30 02:32:26;;;;;;;4.00;1.80;;;;;;;;;;5014115;28;20238;-81
2023/12/30 02:34:52;;;;;;;3.90;1.90;;;;;;;;;;5024116;28;20543;-81
2023/12/30 02:37:18;;;;;;;3.83;1.90;;;;;;;;;;5025190;28;20214;-81
2023/12/30 02:39:44;;;;;;;3.93;2.00;;;;;;;;;;5027164;28;20314;-80
2023/12/30 02:42:10;;;;;;;4.67;1.80;;;;;;;;;;5030964;28;20210;-81
2023/12/30 02:44:37;;;;;;;2.97;1.80;;;;;;;;;;5010865;28;20214;-81
2023/12/30 02:47:03;;;;;;;4.40;2.20;;;;;;;;;;5023619;28;20277;-81
2023/12/30 02:49:31;;;;;;;3.00;2.10;;;;;;;;;;5027232;28;20215;-81
2023/12/30 02:51:58;;;;;;;2.80;1.83;;;;;;;;;;5021891;28;20242;-81
2023/12/30 02:54:24;;;;;;;4.43;2.20;;;;;;;;;;5005044;28;20197;-81
2023/12/30 02:56:50;;;;;;;4.87;2.33;;;;;;;;;;4993389;28;20469;-81
2023/12/30 02:59:16;;;;;;;2.60;1.87;;;;;;;;;;5023568;28;20240;-81
2023/12/30 03:01:43;;;;;;;2.30;1.90;;;;;;;;;;5027652;28;20432;-81
2023/12/30 03:04:09;;;;;;;2.50;1.97;;;;;;;;;;5015174;28;20234;-81
2023/12/30 03:06:35;;;;;;;3.13;2.10;;;;;;;;;;5015173;28;20182;-81
2023/12/30 03:09:01;;;;;;;3.57;2.30;;;;;;;;;;5025249;28;20182;-81
2023/12/30 03:11:27;;;;;;;3.63;2.03;;;;;;;;;;5028707;28;20245;-81
2023/12/30 03:13:54;;;;;;;4.30;2.17;;;;;;;;;;5009370;28;20205;-80
2023/12/30 03:16:20;;;;;;;3.33;2.00;;;;;;;;;;5013920;28;20565;-81
2023/12/30 03:18:47;;;;;;;4.63;2.00;;;;;;;;;;5034116;28;20190;-81
2023/12/30 03:21:15;;;;;;;5.60;2.00;;;;;;;;;;5033998;28;20242;-81
2023/12/30 03:23:41;;;;;;;2.63;1.70;;;;;;;;;;5031764;28;20229;-80
2023/12/30 03:26:09;;;;;;;4.73;2.00;;;;;;;;;;5034105;28;20194;-81
2023/12/30 03:28:35;;;;;;;3.17;1.70;;;;;;;;;;5015319;28;20192;-81
2023/12/30 03:31:01;;;;;;;4.13;1.90;;;;;;;;;;5028200;28;20182;-81
2023/12/30 03:33:27;;;;;;;3.03;1.80;;;;;;;;;;5036895;28;20186;-81
2023/12/30 03:35:54;;;;;;;2.77;1.70;;;;;;;;;;5027200;28;20213;-81
2023/12/30 03:38:20;;;;;;;3.33;1.80;;;;;;;;;;5030724;28;20624;-81
2023/12/30 03:40:47;;;;;;;5.70;1.80;;;;;;;;;;5015936;28;20277;-81
2023/12/30 03:43:13;;;;;;;3.50;1.80;;;;;;;;;;5028763;28;20414;-81
2023/12/30 03:45:40;;;;;;;7.93;4.00;;;;;;;;;;5032642;28;20183;-81
2023/12/30 03:48:06;;;;;;;9.47;6.33;;;;;;;;;;5035278;28;20273;-81
2023/12/30 03:50:32;;;;;;;5.03;2.77;;;;;;;;;;5018017;28;20248;-81
2023/12/30 03:52:59;;;;;;;3.53;2.37;;;;;;;;;;5032734;28;20195;-81
2023/12/30 03:55:25;;;;;;;3.07;1.90;;;;;;;;;;5033115;28;20684;-81
2023/12/30 03:57:53;;;;;;;2.87;1.80;;;;;;;;;;5034823;28;20202;-81
2023/12/30 04:00:20;;;;;;;3.93;2.03;;;;;;;;;;5033622;28;20451;-81
2023/12/30 04:02:47;;;;;;;6.07;1.80;;;;;;;;;;5035480;28;20198;-81
2023/12/30 04:05:13;;;;;;;1.87;1.73;;;;;;;;;;5034917;28;20206;-81
2023/12/30 04:07:39;;;;;;;3.30;1.90;;;;;;;;;;5034380;28;20181;-81
2023/12/30 04:10:06;;;;;;;4.13;1.90;;;;;;;;;;5035625;28;20282;-81
2023/12/30 04:12:35;;;;;;;5.63;2.00;;;;;;;;;;5032683;28;20260;-81
2023/12/30 04:15:01;;;;;;;4.00;2.03;;;;;;;;;;5028069;28;20186;-81
2023/12/30 04:17:27;;;;;;;2.77;1.83;;;;;;;;;;5030750;28;20787;-81
2023/12/30 04:19:54;;;;;;;3.67;2.10;;;;;;;;;;4997724;28;20191;-81
2023/12/30 04:22:20;;;;;;;2.43;1.90;;;;;;;;;;5029074;28;20356;-81
2023/12/30 04:24:47;;;;;;;2.40;1.70;;;;;;;;;;5029669;28;20206;-81
2023/12/30 04:27:13;;;;;;;2.13;1.90;;;;;;;;;;5032145;28;20182;-81
2023/12/30 04:29:39;;;;;;;3.53;1.90;;;;;;;;;;5028487;28;20179;-81
2023/12/30 04:32:06;;;;;;;5.00;2.30;;;;;;;;;;5027367;28;20264;-81
2023/12/30 04:34:33;;;;;;;3.27;2.20;;;;;;;;;;5025579;28;20198;-81
2023/12/30 04:36:59;;;;;;;2.77;2.00;;;;;;;;;;5035914;28;20198;-81
2023/12/30 04:39:25;;;;;;;3.90;2.30;;;;;;;;;;5031800;28;20179;-81
2023/12/30 04:41:56;;;;;;;4.83;2.07;;;;;;;;;;5029051;28;20264;-81
2023/12/30 04:44:22;;;;;;;3.77;2.13;;;;;;;;;;5032628;28;20557;-81
2023/12/30 04:46:48;;;;;;;4.53;2.30;;;;;;;;;;5006528;28;20202;-81
2023/12/30 04:49:14;;;;;;;2.37;1.97;;;;;;;;;;5012926;28;20358;-80
2023/12/30 04:51:40;;;;;;;3.20;2.40;;;;;;;;;;5015084;28;20202;-81
2023/12/30 04:54:07;;;;;;;5.00;2.40;;;;;;;;;;5022243;28;20190;-81
2023/12/30 04:56:33;;;;;;;2.77;2.23;;;;;;;;;;5024525;28;20670;-81
2023/12/30 04:58:59;;;;;;;2.50;2.20;;;;;;;;;;5012897;28;20178;-81
2023/12/30 05:01:25;;;;;;;3.07;2.23;;;;;;;;;;5035908;28;20221;-81
2023/12/30 05:03:53;;;;;;;6.87;2.80;;;;;;;;;;5034361;28;20214;-81
2023/12/30 05:06:21;;;;;;;4.70;2.50;;;;;;;;;;5039641;28;20183;-81
2023/12/30 05:08:48;;;;;;;3.67;2.60;;;;;;;;;;5042332;28;20256;-81
2023/12/30 05:11:14;;;;;;;3.10;2.20;;;;;;;;;;5030542;28;20209;-81
2023/12/30 05:13:40;;;;;;;4.77;2.60;;;;;;;;;;5016118;28;20191;-81
2023/12/30 05:16:06;;;;;;;4.37;2.50;;;;;;;;;;5003673;28;20191;-81
2023/12/30 05:18:32;;;;;;;3.03;2.23;;;;;;;;;;5003830;28;20205;-81
2023/12/30 05:20:58;;;;;;;5.03;2.53;;;;;;;;;;5000929;28;20261;-81
2023/12/30 05:23:25;;;;;;;4.60;2.10;;;;;;;;;;5039167;28;20217;-81
2023/12/30 05:25:51;;;;;;;4.97;2.30;;;;;;;;;;5046562;28;20187;-81
2023/12/30 05:28:17;;;;;;;4.47;2.30;;;;;;;;;;5017901;28;20178;-81
2023/12/30 05:30:43;;;;;;;4.43;2.40;;;;;;;;;;5031513;28;20195;-81
2023/12/30 05:33:09;;;;;;;5.67;2.40;;;;;;;;;;5030143;28;20197;-81
2023/12/30 05:35:36;;;;;;;3.03;2.20;;;;;;;;;;5035437;28;20186;-81
2023/12/30 05:38:03;;;;;;;4.13;2.10;;;;;;;;;;5037518;28;20187;-81
2023/12/30 05:40:30;;;;;;;5.17;2.30;;;;;;;;;;5028581;28;20191;-81
2023/12/30 05:42:56;;;;;;;3.00;1.90;;;;;;;;;;5030462;28;20699;-81
2023/12/30 05:45:23;;;;;;;3.63;2.37;;;;;;;;;;5032735;28;20622;-80
2023/12/30 05:47:49;;;;;;;4.43;2.40;;;;;;;;;;5033287;28;20197;-80
2023/12/30 05:50:15;;;;;;;3.27;2.10;;;;;;;;;;5031342;28;20191;-81
2023/12/30 05:52:41;;;;;;;4.00;2.03;;;;;;;;;;5030705;28;20222;-81
2023/12/30 05:55:08;;;;;;;3.67;2.07;;;;;;;;;;5031080;28;20270;-81
2023/12/30 05:57:34;;;;;;;4.63;2.00;;;;;;;;;;5040057;28;20710;-81
2023/12/30 06:00:00;;;;;;;4.03;2.13;;;;;;;;;;5031603;28;20228;-81
2023/12/30 06:02:26;;;;;;;3.73;2.10;;;;;;;;;;5031791;28;20202;-81
2023/12/30 06:04:53;;;;;;;5.03;2.30;;;;;;;;;;5033118;28;20238;-81
2023/12/30 06:07:19;;;;;;;4.43;2.40;;;;;;;;;;5030193;28;20302;-81
2023/12/30 06:09:46;;;;;;;2.47;1.90;;;;;;;;;;5026169;28;20224;-81
2023/12/30 06:12:12;;;;;;;3.43;1.93;;;;;;;;;;5026774;28;20338;-81
2023/12/30 06:14:39;;;;;;;3.83;2.10;;;;;;;;;;5006533;28;20194;-81
2023/12/30 06:17:05;;;;;;;3.90;1.97;;;;;;;;;;5025251;28;20194;-81
2023/12/30 06:19:33;;;;;;;4.03;1.93;;;;;;;;;;5026445;28;20196;-81
2023/12/30 06:21:59;;;;;;;5.73;2.30;;;;;;;;;;5029247;28;20288;-81
2023/12/30 06:24:26;;;;;;;5.50;2.13;;;;;;;;;;5025845;28;20594;-81
2023/12/30 06:26:53;;;;;;;4.23;2.40;;;;;;;;;;5027575;28;20677;-81
2023/12/30 06:29:19;;;;;;;3.17;1.90;;;;;;;;;;5013559;28;20242;-81
2023/12/30 06:31:45;;;;;;;2.97;2.20;;;;;;;;;;5004878;28;20210;-81
2023/12/30 06:34:12;;;;;;;3.50;2.00;;;;;;;;;;5027717;28;20198;-81
2023/12/30 06:36:41;;;;;;;3.90;2.27;;;;;;;;;;5028613;28;20179;-81
2023/12/30 06:39:08;;;;;;;3.80;2.27;;;;;;;;;;5026715;28;20641;-81
2023/12/30 06:41:34;;;;;;;5.50;2.10;;;;;;;;;;5019726;28;20345;-81
2023/12/30 06:44:00;;;;;;;5.93;2.73;;;;;;;;;;5024017;28;20298;-81
2023/12/30 06:46:27;;;;;;;5.23;2.30;;;;;;;;;;5030868;28;20178;-81
2023/12/30 06:48:53;;;;;;;4.60;2.40;;;;;;;;;;5028436;28;20205;-81
2023/12/30 06:51:19;;;;;;;5.47;2.10;;;;;;;;;;5009822;28;20223;-81
2023/12/30 06:53:45;;;;;;;6.03;2.33;;;;;;;;;;5025073;28;20194;-81
2023/12/30 06:56:11;;;;;;;3.87;2.53;;;;;;;;;;5009350;28;20277;-80
2023/12/30 06:58:37;;;;;;;5.93;2.40;;;;;;;;;;5026051;28;20194;-81
2023/12/30 07:01:04;;;;;;;6.33;2.20;;;;;;;;;;5022225;28;20198;-81
2023/12/30 07:03:31;;;;;;;3.37;2.20;;;;;;;;;;5005178;28;20227;-81
2023/12/30 07:05:57;;;;;;;3.17;2.10;;;;;;;;;;5026142;28;20190;-81
2023/12/30 07:08:23;;;;;;;3.93;2.00;;;;;;;;;;5005396;28;20693;-81
2023/12/30 07:10:49;;;;;;;3.47;2.10;;;;;;;;;;5022166;28;20197;-80
2023/12/30 07:13:15;;;;;;;3.77;2.10;;;;;;;;;;5027646;28;20190;-81
2023/12/30 07:15:41;;;;;;;2.57;2.00;;;;;;;;;;5010489;28;20298;-81
2023/12/30 07:18:08;;;;;;;4.00;2.00;;;;;;;;;;5028165;28;20190;-81
2023/12/30 07:20:35;;;;;;;5.03;2.50;;;;;;;;;;5010621;28;20633;-80
2023/12/30 07:23:04;;;;;;;4.73;2.13;;;;;;;;;;5026344;28;20218;-80
2023/12/30 07:25:30;;;;;;;3.53;1.93;;;;;;;;;;5027190;28;20194;-78
2023/12/30 07:27:56;;;;;;;4.63;2.37;;;;;;;;;;5029609;28;20186;-76
2023/12/30 07:30:22;;;;;;;3.80;2.20;;;;;;;;;;5025302;28;20182;-81
2023/12/30 07:32:48;;;;;;;3.80;2.13;;;;;;;;;;5021107;28;20270;-81
2023/12/30 07:35:15;;;;;;;4.83;2.40;;;;;;;;;;5019298;28;20197;-81
2023/12/30 07:37:41;;;;;;;5.07;2.30;;;;;;;;;;5025113;28;20202;-81
2023/12/30 07:40:08;;;;;;;4.47;2.30;;;;;;;;;;5017230;28;20184;-81
2023/12/30 07:42:35;;;;;;;4.13;2.30;;;;;;;;;;5000457;28;20240;-82
2023/12/30 07:45:01;;;;;;;4.87;2.50;;;;;;;;;;5022379;28;20689;-81
2023/12/30 07:47:27;;;;;;;3.47;2.30;;;;;;;;;;5022944;28;20416;-81
2023/12/30 07:49:53;;;;;;;5.53;2.60;;;;;;;;;;5003473;28;20273;-82
2023/12/30 07:52:20;;;;;;;3.97;2.63;;;;;;;;;;5026097;28;20642;-81
2023/12/30 07:54:46;;;;;;;4.43;2.20;;;;;;;;;;5025600;28;20190;-81
2023/12/30 07:57:13;;;;;;;7.00;2.60;;;;;;;;;;5036451;28;20734;-77
2023/12/30 07:59:40;;;;;;;4.23;2.57;;;;;;;;;;5029862;28;20288;-74
2023/12/30 08:02:06;;;;;;;3.63;2.27;;;;;;;;;;5025727;28;20214;-80
2023/12/30 08:04:33;;;;;;;20.37;13.27;;;;;;;;;;5030001;28;20214;-76
2023/12/30 08:06:59;;;;;;;12.70;9.03;;;;;;;;;;5030089;28;20229;-82
2023/12/30 08:09:25;;;;;;;7.57;5.03;;;;;;;;;;5032540;28;20261;-75
2023/12/30 08:11:51;;;;;;;6.97;3.87;;;;;;;;;;5031155;28;20214;-76
2023/12/30 08:14:17;;;;;;;7.03;4.47;;;;;;;;;;5029431;28;20248;-74
2023/12/30 08:16:44;;;;;;;9.23;5.20;;;;;;;;;;5024049;28;20179;-79
2023/12/30 08:19:11;;;;;;;6.77;3.43;;;;;;;;;;5030460;28;20201;-80
2023/12/30 08:21:37;;;;;;;6.30;3.27;;;;;;;;;;5003922;28;20198;-79
2023/12/30 08:24:06;;;;;;;5.63;3.90;;;;;;;;;;5023176;28;20206;-79
2023/12/30 08:26:32;;;;;;;6.30;3.17;;;;;;;;;;5023238;28;20210;-79
2023/12/30 08:28:58;;;;;;;6.30;2.67;;;;;;;;;;5028650;28;20214;-78
2023/12/30 08:31:25;;;;;;;4.97;2.60;;;;;;;;;;5028952;28;20203;-78
2023/12/30 08:33:51;;;;;;;6.80;2.33;;;;;;;;;;5027928;28;20243;-79
2023/12/30 08:36:17;;;;;;;3.57;1.93;;;;;;;;;;5025717;28;20546;-78
2023/12/30 08:38:44;;;;;;;3.57;1.97;;;;;;;;;;5017362;28;20193;-79
2023/12/30 08:41:14;;;;;;;3.30;2.10;;;;;;;;;;5026213;28;20214;-79
2023/12/30 08:43:42;;;;;;;3.87;2.03;;;;;;;;;;5020695;28;20289;-79
2023/12/30 08:46:09;;;;;;;6.70;3.47;;;;;;;;;;5024130;28;20194;-78
2023/12/30 08:48:36;;;;;;;6.80;2.67;;;;;;;;;;5027665;28;20183;-79
2023/12/30 08:51:02;;;;;;;4.13;2.20;;;;;;;;;;5027034;28;20526;-79
2023/12/30 08:53:28;;;;;;;5.27;2.60;;;;;;;;;;5027145;28;21773;-76
2023/12/30 08:55:55;;;;;;;4.47;1.90;;;;;;;;;;5029123;28;20448;-78
2023/12/30 08:58:23;;;;;;;5.37;2.00;;;;;;;;;;5023139;28;20194;-78
2023/12/30 09:00:50;;;;;;;4.17;1.70;;;;;;;;;;5022011;28;20239;-78
2023/12/30 09:03:16;;;;;;;6.30;2.20;;;;;;;;;;5024471;28;20225;-77
2023/12/30 09:05:43;;;;;;;3.70;2.00;;;;;;;;;;5028683;28;20206;-78
2023/12/30 09:08:09;;;;;;;4.03;2.00;;;;;;;;;;5029339;28;20193;-78
2023/12/30 09:10:36;;;;;;;4.93;1.97;;;;;;;;;;5027406;28;20202;-77
2023/12/30 09:13:02;;;;;;;3.50;2.00;;;;;;;;;;5028669;28;20258;-78
2023/12/30 09:15:28;;;;;;;3.83;2.10;;;;;;;;;;5023458;28;20273;-78
2023/12/30 09:17:57;;;;;;;6.90;1.90;;;;;;;;;;5026869;28;21275;-78
2023/12/30 09:20:23;;;;;;;6.00;2.20;;;;;;;;;;5023854;28;20269;-78
2023/12/30 09:22:49;;;;;;;2.77;2.10;;;;;;;;;;5028908;28;20210;-77
2023/12/30 09:25:15;;;;;;;3.87;2.00;;;;;;;;;;5027059;28;20230;-78
2023/12/30 09:27:41;;;;;;;4.33;2.27;;;;;;;;;;5025079;28;20544;-78
2023/12/30 09:30:08;;;;;;;4.07;2.30;;;;;;;;;;5028650;28;20175;-78
2023/12/30 09:32:34;;;;;;;4.40;2.30;;;;;;;;;;5012233;28;20234;-78
2023/12/30 09:35:03;;;;;;;4.03;2.10;;;;;;;;;;5029992;28;20197;-78
2023/12/30 09:37:30;;;;;;;5.37;2.50;;;;;;;;;;5031853;28;20212;-78
2023/12/30 09:39:57;;;;;;;5.40;2.40;;;;;;;;;;5008636;28;20215;-78
2023/12/30 09:42:23;;;;;;;4.33;2.30;;;;;;;;;;5025430;28;20314;-78
2023/12/30 09:44:50;;;;;;;3.93;1.97;;;;;;;;;;5011202;28;20224;-78
2023/12/30 09:47:18;;;;;;;4.63;2.20;;;;;;;;;;5027777;28;20179;-78
2023/12/30 09:49:44;;;;;;;4.07;1.87;;;;;;;;;;5029225;28;20174;-78
2023/12/30 09:52:11;;;;;;;6.17;2.97;;;;;;;;;;5024994;28;20686;-78
2023/12/30 09:54:38;;;;;;;5.87;2.10;;;;;;;;;;5017969;28;20179;-78
2023/12/30 09:57:04;;;;;;;5.20;2.00;;;;;;;;;;5018971;28;20306;-78
2023/12/30 09:59:35;;;;;;;3.40;2.00;;;;;;;;;;5021217;28;20196;-78
2023/12/30 10:02:03;;;;;;;6.10;1.87;;;;;;;;;;5018638;28;20207;-78
2023/12/30 10:04:29;;;;;;;4.43;2.00;;;;;;;;;;5017306;28;20715;-77
2023/12/30 10:06:56;;;;;;;3.40;2.00;;;;;;;;;;5024109;28;20182;-78
2023/12/30 10:09:23;;;;;;;3.77;2.17;;;;;;;;;;5020595;28;20595;-79
2023/12/30 10:11:49;;;;;;;3.67;2.00;;;;;;;;;;5011018;28;20202;-78
2023/12/30 10:14:16;;;;;;;3.73;1.93;;;;;;;;;;5026042;28;20668;-80
2023/12/30 10:16:42;;;;;;;4.90;2.07;;;;;;;;;;5025788;28;20198;-77
2023/12/30 10:19:13;;;;;;;3.70;1.80;;;;;;;;;;5025554;28;20189;-76
2023/12/30 10:21:39;;;;;;;5.20;2.10;;;;;;;;;;5028004;28;20207;-78
2023/12/30 10:24:05;;;;;;;5.07;2.00;;;;;;;;;;5010853;28;20232;-77
2023/12/30 10:26:33;;;;;;;3.67;1.93;;;;;;;;;;5019958;28;20218;-77
2023/12/30 10:28:59;;;;;;;4.13;1.90;;;;;;;;;;5029471;28;20186;-77
2023/12/30 10:31:25;;;;;;;3.47;1.77;;;;;;;;;;5031707;28;20220;-77
2023/12/30 10:33:54;;;;;;;5.37;1.90;;;;;;;;;;5035955;28;20183;-77
2023/12/30 10:36:21;;;;;;;3.50;2.00;;;;;;;;;;5031970;28;20214;-77
2023/12/30 10:38:47;;;;;;;3.47;1.87;;;;;;;;;;5027204;28;20190;-77
2023/12/30 10:41:14;;;;;;;7.83;2.17;;;;;;;;;;5030042;28;20214;-77
2023/12/30 10:43:40;;;;;;;5.57;1.90;;;;;;;;;;5030243;28;20211;-80
2023/12/30 10:46:10;;;;;;;4.43;1.83;;;;;;;;;;5027311;28;20176;-77
2023/12/30 10:48:38;;;;;;;4.70;1.77;;;;;;;;;;5030415;28;20273;-77
2023/12/30 10:51:04;;;;;;;3.10;1.50;;;;;;;;;;5010941;28;20188;-76
2023/12/30 10:53:32;;;;;;;4.93;2.00;;;;;;;;;;5024552;28;20658;-77
2023/12/30 10:56:02;;;;;;;4.63;1.87;;;;;;;;;;5028957;28;20178;-78
2023/12/30 10:58:33;;;;;;;3.77;1.80;;;;;;;;;;5029186;28;20366;-78
2023/12/30 11:01:01;;;;;;;3.47;2.10;;;;;;;;;;5027668;28;20191;-78
2023/12/30 11:03:29;;;;;;;4.83;2.30;;;;;;;;;;5028775;28;20209;-78
2023/12/30 11:05:55;;;;;;;4.73;2.23;;;;;;;;;;5023854;28;20190;-78
2023/12/30 11:08:21;;;;;;;5.37;1.93;;;;;;;;;;5028339;28;20214;-78
2023/12/30 11:10:47;;;;;;;5.03;1.90;;;;;;;;;;5030669;28;20190;-79
2023/12/30 11:13:13;;;;;;;3.13;1.80;;;;;;;;;;5028472;28;20184;-79
2023/12/30 11:15:41;;;;;;;4.97;1.80;;;;;;;;;;5009848;28;20198;-79
2023/12/30 11:18:12;;;;;;;6.03;1.63;;;;;;;;;;5009542;28;20203;-78
2023/12/30 11:20:43;;;;;;;3.50;1.83;;;;;;;;;;5023554;28;20225;-79
2023/12/30 11:23:10;;;;;;;4.27;1.97;;;;;;;;;;5004922;28;20544;-75
2023/12/30 11:25:37;;;;;;;5.20;2.27;;;;;;;;;;5018408;28;20203;-75
2023/12/30 11:28:33;;;;;;;5.10;1.77;;;;;;;;;;5022255;28;20319;-77
2023/12/30 11:31:00;;;;;;;5.20;1.80;;;;;;;;;;5019152;28;20233;-76
2023/12/30 11:33:27;;;;;;;4.83;2.40;;;;;;;;;;5020771;28;20179;-74
2023/12/30 11:35:54;;;;;;;7.00;5.30;;;;;;;;;;5020809;28;20190;-77
2023/12/30 11:38:20;;;;;;;6.93;2.70;;;;;;;;;;5030818;28;20203;-77
2023/12/30 11:40:54;;;;;;;5.70;2.40;;;;;;;;;;5027984;28;20182;-78
2023/12/30 11:43:20;;;;;;;4.23;2.17;;;;;;;;;;5025287;28;20227;-78
2023/12/30 11:45:46;;;;;;;5.40;1.93;;;;;;;;;;5023837;28;20178;-76
2023/12/30 11:48:14;;;;;;;5.50;1.90;;;;;;;;;;5023694;28;20180;-76
2023/12/30 11:50:40;;;;;;;3.77;1.60;;;;;;;;;;5023343;28;20278;-78
2023/12/30 11:53:07;;;;;;;5.13;1.97;;;;;;;;;;5022559;28;20212;-76
2023/12/30 11:55:33;;;;;;;5.53;1.70;;;;;;;;;;5039243;28;20276;-76
2023/12/30 11:57:59;;;;;;;5.63;2.47;;;;;;;;;;5004422;28;20202;-76
2023/12/30 12:00:26;;;;;;;5.37;2.77;;;;;;;;;;5029175;28;20194;-77
2023/12/30 12:02:53;;;;;;;5.87;1.70;;;;;;;;;;5030242;28;20306;-76
2023/12/30 12:05:19;;;;;;;6.30;1.93;;;;;;;;;;5026677;28;20570;-76
2023/12/30 12:07:45;;;;;;;8.00;3.40;;;;;;;;;;5021052;28;20184;-77
2023/12/30 12:10:11;;;;;;;5.13;2.30;;;;;;;;;;5025406;28;20190;-76
2023/12/30 12:12:38;;;;;;;3.17;1.77;;;;;;;;;;5021257;28;20212;-76
2023/12/30 12:15:05;;;;;;;4.37;1.90;;;;;;;;;;5026150;28;20189;-77
2023/12/30 12:17:31;;;;;;;4.87;2.07;;;;;;;;;;5024984;28;20279;-75
2023/12/30 12:19:58;;;;;;;4.07;1.90;;;;;;;;;;5023890;28;20193;-77
2023/12/30 12:22:24;;;;;;;3.77;2.30;;;;;;;;;;5019562;28;20217;-76
2023/12/30 12:24:50;;;;;;;6.10;1.90;;;;;;;;;;5022476;28;20609;-76
2023/12/30 12:27:22;;;;;;;7.57;1.70;;;;;;;;;;5023979;28;20189;-77
2023/12/30 12:29:53;;;;;;;3.70;1.70;;;;;;;;;;5021833;28;20222;-76
2023/12/30 12:32:20;;;;;;;4.00;1.50;;;;;;;;;;5022869;28;20206;-77
2023/12/30 12:34:50;;;;;;;5.57;1.60;;;;;;;;;;5022097;28;20656;-77
2023/12/30 12:37:17;;;;;;;12.20;8.03;;;;;;;;;;5022032;28;20210;-76
2023/12/30 12:39:44;;;;;;;12.83;8.00;;;;;;;;;;5027432;28;20192;-75
2023/12/30 12:42:10;;;;;;;11.43;3.90;;;;;;;;;;5024596;28;20299;-81
2023/12/30 12:44:37;;;;;;;6.37;2.63;;;;;;;;;;5022245;28;20656;-80
2023/12/30 12:47:03;;;;;;;6.90;2.30;;;;;;;;;;5030323;28;20396;-81
2023/12/30 12:49:29;;;;;;;4.87;1.60;;;;;;;;;;5025475;28;20190;-79
2023/12/30 12:51:55;;;;;;;4.57;1.73;;;;;;;;;;5022245;28;20197;-80
2023/12/30 12:54:21;;;;;;;4.17;1.90;;;;;;;;;;5021708;28;20195;-79
2023/12/30 12:56:48;;;;;;;3.23;1.40;;;;;;;;;;5017010;28;20269;-80
2023/12/30 12:59:14;;;;;;;2.77;1.60;;;;;;;;;;5020636;28;20233;-78
2023/12/30 13:01:40;;;;;;;2.87;1.40;;;;;;;;;;5014882;28;20218;-80
2023/12/30 13:04:07;;;;;;;4.73;1.63;;;;;;;;;;5018328;28;20316;-79
2023/12/30 13:06:33;;;;;;;8.30;1.97;;;;;;;;;;5020903;28;20185;-80
2023/12/30 13:09:00;;;;;;;3.73;1.50;;;;;;;;;;5021470;28;20183;-79
2023/12/30 13:11:27;;;;;;;3.77;1.40;;;;;;;;;;5025645;28;20691;-79
2023/12/30 13:13:56;;;;;;;3.87;1.53;;;;;;;;;;5026185;28;20218;-81
2023/12/30 13:16:24;;;;;;;3.67;1.40;;;;;;;;;;5028656;28;20214;-80
2023/12/30 13:18:50;;;;;;;5.03;1.87;;;;;;;;;;5025125;28;20302;-79
2023/12/30 13:21:16;;;;;;;7.40;1.60;;;;;;;;;;5026087;28;20508;-79
2023/12/30 13:23:43;;;;;;;4.20;1.50;;;;;;;;;;5024804;28;20645;-79
2023/12/30 13:26:10;;;;;;;4.97;1.30;;;;;;;;;;5009424;28;20182;-79
2023/12/30 13:28:37;;;;;;;3.13;1.40;;;;;;;;;;5025167;28;20185;-79
2023/12/30 13:31:04;;;;;;;4.67;1.50;;;;;;;;;;5018006;28;20191;-79
2023/12/30 13:33:32;;;;;;;5.00;1.30;;;;;;;;;;5025209;28;20248;-79
2023/12/30 13:35:59;;;;;;;3.73;1.40;;;;;;;;;;5024446;28;20221;-79
2023/12/30 13:38:27;;;;;;;4.57;1.40;;;;;;;;;;5022379;28;20183;-79
2023/12/30 13:40:58;;;;;;;5.07;1.83;;;;;;;;;;5025810;28;20580;-81
2023/12/30 13:43:26;;;;;;;4.33;1.40;;;;;;;;;;5024070;28;20778;-79
2023/12/30 13:46:00;;;;;;;3.67;1.37;;;;;;;;;;5020630;28;20290;-79
2023/12/30 13:51:15;;;;;;;5.83;1.70;;;;;;;;;;5026334;28;20239;-79
2023/12/30 13:53:41;;;;;;;4.30;1.30;;;;;;;;;;5021087;28;20230;-79
2023/12/30 13:56:12;;;;;;;3.60;1.50;;;;;;;;;;5023054;28;20234;-79
2023/12/30 13:58:39;;;;;;;5.97;1.47;;;;;;;;;;5024464;28;20249;-79
2023/12/30 14:01:05;;;;;;;2.97;1.20;;;;;;;;;;5023136;28;20217;-79
2023/12/30 14:03:31;;;;;;;4.77;1.30;;;;;;;;;;5027979;28;20703;-79
2023/12/30 14:05:58;;;;;;;5.10;1.50;;;;;;;;;;5021052;28;20226;-79
2023/12/30 14:08:42;;;;;;;3.37;1.77;;;;;;;;;;5003186;28;20183;-79
2023/12/30 14:11:20;;;;;;;3.67;1.27;;;;;;;;;;5018719;28;20265;-79
2023/12/30 14:13:49;;;;;;;3.20;1.30;;;;;;;;;;5025758;28;20184;-80
2023/12/30 14:16:16;;;;;;;4.63;1.40;;;;;;;;;;5004616;28;20633;-79
2023/12/30 14:18:43;;;;;;;3.17;1.20;;;;;;;;;;5016665;28;20437;-79
2023/12/30 14:21:09;;;;;;;6.60;1.63;;;;;;;;;;5022209;28;20556;-79
2023/12/30 14:23:35;;;;;;;4.23;1.17;;;;;;;;;;5024758;28;20188;-79
2023/12/30 14:26:01;;;;;;;2.73;1.10;;;;;;;;;;5022100;28;20186;-79
2023/12/30 14:28:27;;;;;;;4.87;1.27;;;;;;;;;;5024819;28;20262;-79
2023/12/30 14:30:53;;;;;;;3.70;1.13;;;;;;;;;;5021432;28;20196;-79
2023/12/30 14:33:21;;;;;;;3.47;1.10;;;;;;;;;;5025840;28;20271;-79
2023/12/30 14:35:47;;;;;;;3.50;1.40;;;;;;;;;;5025112;28;20267;-79
2023/12/30 14:38:13;;;;;;;3.13;1.30;;;;;;;;;;5029072;28;20183;-79
2023/12/30 14:40:40;;;;;;;3.13;1.20;;;;;;;;;;5026121;28;20191;-79
2023/12/30 14:43:06;;;;;;;3.70;1.33;;;;;;;;;;5012049;28;20690;-79